Albemarle Island — C6LU3 — position and weather

sailwx.info

Track history (hours):
 
Tides and Currents Weather Stations Pressure Air Temp Water Temp Dewpoint Dewpoint Depression Visibility Wind Speed Wind Dir Waves Ship Positions

Albemarle Island

Last reported at 2017-Apr-26 12:36 UTC. Time now 2017-Apr-26 13:55 UTC.
Position N 51°27' E 003°44'.

Type: Cargo ship. MMSI: 308511000.

Date/timePositionNaut miles runAvg speedWind from/ knotsBaromVisibWave heightAir tempDewpointWater temp
2017-Apr-26 12:36N 51°27' E 003°44'0 0.0
2017-Apr-26 12:30N 51°27' E 003°44'0 0.0
2017-Apr-26 11:12N 51°27' E 003°44'0 0.0
2017-Apr-26 11:00N 51°27' E 003°44'0 0.0
2017-Apr-26 10:18N 51°27' E 003°44'0 0.0
2017-Apr-26 10:00N 51°27' E 003°44'0 0.0
2017-Apr-26 09:30N 51°27' E 003°44'0 0.0
2017-Apr-26 04:55N 51°27' E 003°44'2 3.3
2017-Apr-26 04:21N 51°27' E 003°41'2 5.4
2017-Apr-26 03:58N 51°26' E 003°38'511.4
2017-Apr-26 03:30N 51°29' E 003°30'713.8
2017-Apr-26 03:00N 51°34' E 003°24'714.2
2017-Apr-26 02:30N 51°40' E 003°18'612.0
2017-Apr-26 01:58N 51°45' E 003°11'5 9.6
2017-Apr-26 01:27N 51°46' E 003°03'44816.7
2017-Apr-24 22:32N 57°49' E 010°41'116.1
2017-Apr-24 22:28N 57°49' E 010°43'715.9
2017-Apr-24 22:00N 57°45' E 010°55'917.6
2017-Apr-24 21:30N 57°39' E 011°07'918.0
2017-Apr-24 21:00N 57°33' E 011°19'918.1
2017-Apr-24 20:30N 57°25' E 011°29'918.4
2017-Apr-24 20:00N 57°17' E 011°34'1318.1
2017-Apr-24 19:18N 57°05' E 011°42'518.1
2017-Apr-24 19:00N 56°60' E 011°46'9715.8
2017-Apr-24 12:49N 55°26' E 010°58'616.1
2017-Apr-24 12:28N 55°21' E 011°02'816.7
2017-Apr-24 12:00N 55°13' E 011°06'816.9
2017-Apr-24 11:30N 55°05' E 011°03'816.3
2017-Apr-24 11:00N 54°57' E 010°58'816.9
2017-Apr-24 10:30N 54°50' E 010°52'816.4
2017-Apr-24 10:00N 54°42' E 010°55'918.0
2017-Apr-24 09:30N 54°37' E 011°08'918.1
2017-Apr-24 09:00N 54°33' E 011°22'918.1
2017-Apr-24 08:30N 54°29' E 011°36'917.1
2017-Apr-24 07:59N 54°27' E 011°51'817.4
2017-Apr-24 07:30N 54°26' E 012°05'816.9
2017-Apr-24 07:00N 54°33' E 012°13'6217.3
2017-Apr-24 03:26N 55°01' E 013°49'818.0
2017-Apr-24 03:00N 55°04' E 014°02'917.6
2017-Apr-24 02:30N 55°11' E 014°11'918.1
2017-Apr-24 02:00N 55°17' E 014°22'917.9
2017-Apr-24 01:30N 55°24' E 014°32'917.7
2017-Apr-24 01:00N 55°29' E 014°45'917.9
2017-Apr-24 00:30N 55°33' E 014°59'918.0
2017-Apr-24 00:00N 55°37' E 015°13'1017.9
2017-Apr-23 23:28N 55°42' E 015°29'33418.8
2017-Apr-23 05:39N 59°36' E 022°55'320.4
2017-Apr-23 05:30N 59°36' E 023°01'1020.1
2017-Apr-23 05:00N 59°38' E 023°20'1019.6
2017-Apr-23 04:30N 59°40' E 023°39'1019.5
2017-Apr-23 04:00N 59°43' E 023°58'6619.6
2017-Apr-23 00:37N 59°58' E 026°07'619.5
2017-Apr-23 00:18N 59°59' E 026°19'619.6
2017-Apr-23 00:00N 60°01' E 026°30'1019.2
2017-Apr-22 23:29N 60°00' E 026°50'919.0
2017-Apr-22 23:00N 60°01' E 027°08'1019.6
2017-Apr-22 22:30N 60°06' E 027°25'1019.6
2017-Apr-22 22:00N 60°11' E 027°42'918.4
2017-Apr-22 21:30N 60°10' E 028°00'919.0
2017-Apr-22 21:00N 60°07' E 028°18'918.0
2017-Apr-22 20:30N 60°03' E 028°34'918.3
2017-Apr-22 20:00N 60°03' E 028°53'1018.3
2017-Apr-22 19:29N 60°02' E 029°12'1214.0
2017-Apr-22 18:38N 60°01' E 029°35'513.0
2017-Apr-22 18:15N 59°59' E 029°45'311.1
2017-Apr-22 18:00N 59°57' E 029°49'611.2
2017-Apr-22 17:30N 59°55' E 029°60'510.6
2017-Apr-22 17:01N 59°53' E 030°09'3 5.4
2017-Apr-22 16:30N 59°55' E 030°14'1 1.0
2017-Apr-22 16:00N 59°54' E 030°13'0 0.0
2017-Apr-22 15:30N 59°54' E 030°13'0 0.0
2017-Apr-22 15:00N 59°54' E 030°13'0 0.0
2017-Apr-22 14:30N 59°54' E 030°13'0 0.0
2017-Apr-22 13:30N 59°54' E 030°13'0 0.0
2017-Apr-22 13:00N 59°54' E 030°13'0 0.0
2017-Apr-22 12:30N 59°54' E 030°13'0 0.0
2017-Apr-22 12:00N 59°54' E 030°13'0 0.0
2017-Apr-22 11:30N 59°54' E 030°13'0 0.0
2017-Apr-22 11:00N 59°54' E 030°13'0 0.0
2017-Apr-22 10:30N 59°54' E 030°13'0 0.0
2017-Apr-22 10:00N 59°54' E 030°13'0 0.0
2017-Apr-22 09:30N 59°54' E 030°13'0 0.0
2017-Apr-22 09:00N 59°54' E 030°13'0 0.0
2017-Apr-22 08:30N 59°54' E 030°13'0 0.0
2017-Apr-22 08:00N 59°54' E 030°13'0 0.0
2017-Apr-22 07:30N 59°54' E 030°13'0 0.0
2017-Apr-22 07:00N 59°54' E 030°13'0 0.0
2017-Apr-22 06:30N 59°54' E 030°13'0 0.0
2017-Apr-22 06:00N 59°54' E 030°13'0 0.0
2017-Apr-22 05:30N 59°54' E 030°13'0 0.0
2017-Apr-22 05:00N 59°54' E 030°13'0 0.0
2017-Apr-22 04:30N 59°54' E 030°13'0 0.0
2017-Apr-22 04:00N 59°54' E 030°13'0 0.0
2017-Apr-22 03:30N 59°54' E 030°13'0 0.0
2017-Apr-22 03:00N 59°54' E 030°13'0 0.0
2017-Apr-22 02:30N 59°54' E 030°13'0 0.0
2017-Apr-22 02:00N 59°54' E 030°13'0 0.0
2017-Apr-22 01:30N 59°54' E 030°13'0 0.0
2017-Apr-22 01:00N 59°54' E 030°13'0 0.0
2017-Apr-22 00:30N 59°54' E 030°13'0 0.0
2017-Apr-22 00:00N 59°54' E 030°13'0 0.0
2017-Apr-21 23:30N 59°54' E 030°13'0 0.0
2017-Apr-21 23:00N 59°54' E 030°13'0 0.0
2017-Apr-21 22:30N 59°54' E 030°13'0 0.0
2017-Apr-21 22:00N 59°54' E 030°13'0 0.0
2017-Apr-21 21:30N 59°54' E 030°13'0 0.0
2017-Apr-21 21:00N 59°54' E 030°13'0 0.0
2017-Apr-21 20:30N 59°54' E 030°13'0 0.0
2017-Apr-21 20:00N 59°54' E 030°13'0 0.0
2017-Apr-21 19:29N 59°54' E 030°13'0 0.0
2017-Apr-21 18:59N 59°54' E 030°13'0 0.0
2017-Apr-21 18:29N 59°54' E 030°13'0 0.0
2017-Apr-21 17:59N 59°54' E 030°13'0 0.0
2017-Apr-21 17:29N 59°54' E 030°13'0 0.0
2017-Apr-21 16:59N 59°54' E 030°13'0 0.0
2017-Apr-21 16:29N 59°54' E 030°13'0 0.0
2017-Apr-21 15:59N 59°54' E 030°13'0 0.0
2017-Apr-21 15:29N 59°54' E 030°13'0 0.0
2017-Apr-21 14:59N 59°54' E 030°13'0 0.0
2017-Apr-21 14:29N 59°54' E 030°13'0 0.0
2017-Apr-21 13:29N 59°54' E 030°13'0 0.0
2017-Apr-21 12:59N 59°54' E 030°13'0 0.0
2017-Apr-21 12:29N 59°54' E 030°13'0 0.0
2017-Apr-21 11:59N 59°54' E 030°13'0 0.0
2017-Apr-21 11:29N 59°54' E 030°13'0 0.0
2017-Apr-21 10:59N 59°54' E 030°13'0 0.0
2017-Apr-21 10:29N 59°54' E 030°13'0 0.0
2017-Apr-21 09:59N 59°54' E 030°13'0 0.0
2017-Apr-21 09:29N 59°54' E 030°13'0 0.0
2017-Apr-21 08:59N 59°54' E 030°13'0 0.0
2017-Apr-21 08:29N 59°54' E 030°13'0 0.0
2017-Apr-21 07:56N 59°54' E 030°13'0 0.0
2017-Apr-21 07:29N 59°54' E 030°13'0 0.0
2017-Apr-21 06:59N 59°54' E 030°13'0 0.0
2017-Apr-21 06:29N 59°54' E 030°13'0 0.0
2017-Apr-21 05:59N 59°54' E 030°13'0 0.0
2017-Apr-21 05:29N 59°54' E 030°13'0 0.0
2017-Apr-21 04:59N 59°54' E 030°13'0 0.0
2017-Apr-21 04:29N 59°54' E 030°13'0 0.0
2017-Apr-21 03:59N 59°54' E 030°13'0 0.0
2017-Apr-21 03:29N 59°54' E 030°13'0 0.0
2017-Apr-21 02:59N 59°54' E 030°13'0 0.0
2017-Apr-21 02:29N 59°54' E 030°13'0 0.0
2017-Apr-21 01:59N 59°54' E 030°13'0 0.0
2017-Apr-21 01:29N 59°54' E 030°13'0 0.0
2017-Apr-21 00:59N 59°54' E 030°13'0 0.0
2017-Apr-21 00:29N 59°54' E 030°13'0 0.0
2017-Apr-20 23:53N 59°54' E 030°13'0 0.0
2017-Apr-20 23:29N 59°54' E 030°13'0 0.0
2017-Apr-20 22:59N 59°54' E 030°13'0 0.0
2017-Apr-20 22:29N 59°54' E 030°13'0 0.0
2017-Apr-20 21:59N 59°54' E 030°13'0 0.0
2017-Apr-20 21:29N 59°54' E 030°13'0 0.0
2017-Apr-20 20:59N 59°54' E 030°13'0 0.0
2017-Apr-20 20:29N 59°54' E 030°13'0 0.0
2017-Apr-20 19:59N 59°54' E 030°13'0 0.0
2017-Apr-20 19:29N 59°54' E 030°13'0 0.0
2017-Apr-20 18:59N 59°54' E 030°13'0 0.0
2017-Apr-20 18:29N 59°54' E 030°13'0 0.0
2017-Apr-20 17:59N 59°54' E 030°13'0 0.0
2017-Apr-20 17:29N 59°54' E 030°13'0 0.0
2017-Apr-20 16:56N 59°54' E 030°13'0 0.0
2017-Apr-20 16:29N 59°54' E 030°13'0 0.0
2017-Apr-20 15:59N 59°54' E 030°13'0 0.0
2017-Apr-20 15:29N 59°54' E 030°13'0 0.0
2017-Apr-20 14:59N 59°54' E 030°13'0 0.0
2017-Apr-20 13:59N 59°54' E 030°13'0 0.0
2017-Apr-20 13:29N 59°54' E 030°13'0 0.0
2017-Apr-20 12:59N 59°54' E 030°13'0 0.0
2017-Apr-20 12:29N 59°54' E 030°13'0 0.0
2017-Apr-20 11:59N 59°54' E 030°13'0 0.0
2017-Apr-20 11:29N 59°54' E 030°13'0 0.0
2017-Apr-20 10:59N 59°54' E 030°13'0 0.0
2017-Apr-20 10:29N 59°54' E 030°13'0 0.0
2017-Apr-20 09:56N 59°54' E 030°13'0 0.0
2017-Apr-20 09:29N 59°54' E 030°13'0 0.0
2017-Apr-20 08:59N 59°54' E 030°13'0 0.0
2017-Apr-20 08:29N 59°54' E 030°13'0 0.0
2017-Apr-20 07:59N 59°54' E 030°13'0 0.0
2017-Apr-20 07:29N 59°54' E 030°13'0 0.0
2017-Apr-20 06:58N 59°54' E 030°13'0 0.0
2017-Apr-20 06:28N 59°54' E 030°13'0 0.0
2017-Apr-20 05:55N 59°54' E 030°13'0 0.0
2017-Apr-20 05:28N 59°54' E 030°13'0 0.0
2017-Apr-20 04:58N 59°54' E 030°13'0 0.0
2017-Apr-20 04:28N 59°54' E 030°13'0 0.0
2017-Apr-20 03:58N 59°54' E 030°13'0 0.0
2017-Apr-20 03:28N 59°54' E 030°13'0 0.0
2017-Apr-20 02:58N 59°54' E 030°13'0 0.0
2017-Apr-20 02:28N 59°54' E 030°13'0 0.0
2017-Apr-20 01:58N 59°54' E 030°13'0 0.0
2017-Apr-20 01:28N 59°54' E 030°13'0 0.0
2017-Apr-20 00:55N 59°54' E 030°13'0 0.0
2017-Apr-20 00:28N 59°54' E 030°13'0 0.0
2017-Apr-19 23:58N 59°54' E 030°13'0 0.0
2017-Apr-19 23:28N 59°54' E 030°13'0 0.0
2017-Apr-19 22:58N 59°54' E 030°13'0 0.0
2017-Apr-19 22:28N 59°54' E 030°13'0 0.0
2017-Apr-19 21:58N 59°54' E 030°13'0 0.0
2017-Apr-19 21:28N 59°54' E 030°13'0 0.0
2017-Apr-19 20:58N 59°54' E 030°13'0 0.0
2017-Apr-19 20:28N 59°54' E 030°13'0 0.0
2017-Apr-19 19:58N 59°54' E 030°13'0 0.0
2017-Apr-19 19:28N 59°54' E 030°13'0 0.0
2017-Apr-19 18:55N 59°54' E 030°13'0 0.0
2017-Apr-19 18:28N 59°54' E 030°13'0 0.0
2017-Apr-19 17:58N 59°54' E 030°13'0 0.0
2017-Apr-19 17:28N 59°54' E 030°13'0 0.0
2017-Apr-19 16:58N 59°54' E 030°13'0 0.0
2017-Apr-19 16:28N 59°54' E 030°13'0 0.0
2017-Apr-19 15:58N 59°54' E 030°13'0 0.0
2017-Apr-19 15:28N 59°54' E 030°13'0 0.0
2017-Apr-19 14:58N 59°54' E 030°13'0 0.0
2017-Apr-19 14:28N 59°54' E 030°13'0 0.0
2017-Apr-19 13:25N 59°54' E 030°13'0 0.0
2017-Apr-19 12:55N 59°54' E 030°13'0 0.0
2017-Apr-19 12:28N 59°54' E 030°13'0 0.0
2017-Apr-19 11:58N 59°54' E 030°13'0 0.0
2017-Apr-19 11:28N 59°54' E 030°13'0 0.0
2017-Apr-19 10:58N 59°54' E 030°13'0 0.0
2017-Apr-19 10:28N 59°54' E 030°13'0 0.0
2017-Apr-19 09:58N 59°54' E 030°13'0 0.0
2017-Apr-19 09:28N 59°54' E 030°13'0 0.0
2017-Apr-19 08:58N 59°54' E 030°13'0 0.0
2017-Apr-19 08:28N 59°54' E 030°13'0 0.0
2017-Apr-19 07:58N 59°54' E 030°13'0 0.0
2017-Apr-19 07:28N 59°54' E 030°13'0 0.0
2017-Apr-19 06:58N 59°54' E 030°13'0 0.0
2017-Apr-19 06:28N 59°54' E 030°13'0 0.0
2017-Apr-19 05:58N 59°54' E 030°13'0 0.0
2017-Apr-19 05:28N 59°54' E 030°13'0 0.0
2017-Apr-19 04:58N 59°54' E 030°13'0 0.0
2017-Apr-19 04:28N 59°54' E 030°13'0 0.0
2017-Apr-19 03:58N 59°54' E 030°13'0 0.0
2017-Apr-19 03:28N 59°54' E 030°13'0 0.0
2017-Apr-19 02:58N 59°54' E 030°13'0 0.0
2017-Apr-19 02:28N 59°54' E 030°13'0 0.0
2017-Apr-19 01:58N 59°54' E 030°13'0 0.0
2017-Apr-19 01:28N 59°54' E 030°13'0 0.0
2017-Apr-19 00:58N 59°54' E 030°13'0 0.0
2017-Apr-19 00:28N 59°54' E 030°13'0 0.0
2017-Apr-18 23:58N 59°54' E 030°13'0 0.0
2017-Apr-18 23:28N 59°54' E 030°13'0 0.0
2017-Apr-18 22:58N 59°54' E 030°13'0 0.0
2017-Apr-18 22:28N 59°54' E 030°13'0 0.0
2017-Apr-18 21:58N 59°54' E 030°13'0 0.0
2017-Apr-18 21:28N 59°54' E 030°13'0 0.0
2017-Apr-18 20:58N 59°54' E 030°13'0 0.0
2017-Apr-18 20:28N 59°54' E 030°13'0 0.0
2017-Apr-18 19:58N 59°54' E 030°13'0 0.0
2017-Apr-18 19:31N 59°54' E 030°13'0 0.0
2017-Apr-18 19:01N 59°54' E 030°13'0 0.0
2017-Apr-18 18:30N 59°54' E 030°13'0 0.0
2017-Apr-18 18:00N 59°54' E 030°13'0 0.0
2017-Apr-18 17:30N 59°54' E 030°13'0 0.0
2017-Apr-18 17:00N 59°54' E 030°13'0 0.0
2017-Apr-18 16:30N 59°54' E 030°13'0 0.0
2017-Apr-18 16:00N 59°54' E 030°13'0 0.0
2017-Apr-18 15:27N 59°54' E 030°13'0 0.0
2017-Apr-18 15:00N 59°54' E 030°13'0 0.0
2017-Apr-18 14:30N 59°54' E 030°13'0 0.0
2017-Apr-18 13:30N 59°54' E 030°13'0 0.0
2017-Apr-18 11:48N 59°54' E 030°13'0 0.0
2017-Apr-18 11:30N 59°54' E 030°13'0 0.0
2017-Apr-18 11:00N 59°54' E 030°13'0 0.0
2017-Apr-18 10:30N 59°54' E 030°13'0 0.0
2017-Apr-18 10:00N 59°54' E 030°13'0 0.0
2017-Apr-18 09:30N 59°54' E 030°13'0 0.0
2017-Apr-18 09:00N 59°54' E 030°13'0 0.0
2017-Apr-18 08:30N 59°54' E 030°13'0 0.0
2017-Apr-18 08:00N 59°54' E 030°13'0 0.0
2017-Apr-18 07:30N 59°54' E 030°13'0 0.0
2017-Apr-18 07:00N 59°54' E 030°13'0 0.0
2017-Apr-18 06:30N 59°54' E 030°13'0 0.0
2017-Apr-18 06:00N 59°54' E 030°13'0 0.0
2017-Apr-18 05:24N 59°54' E 030°13'0 0.0
2017-Apr-18 05:00N 59°54' E 030°13'0 0.0
2017-Apr-18 04:30N 59°54' E 030°13'0 0.0
2017-Apr-18 04:00N 59°54' E 030°13'0 0.0
2017-Apr-18 03:30N 59°54' E 030°13'0 0.0
2017-Apr-18 03:00N 59°54' E 030°13'0 0.0
2017-Apr-18 02:30N 59°54' E 030°13'0 0.0
2017-Apr-18 01:57N 59°54' E 030°13'0 0.0
2017-Apr-18 01:30N 59°54' E 030°13'0 0.0
2017-Apr-18 01:00N 59°54' E 030°13'0 0.0
2017-Apr-18 00:30N 59°54' E 030°13'0 0.0
2017-Apr-18 00:00N 59°54' E 030°13'0 0.0
2017-Apr-17 23:30N 59°54' E 030°13'0 0.0
2017-Apr-17 23:00N 59°54' E 030°13'0 0.0
2017-Apr-17 22:30N 59°54' E 030°13'0 0.0
2017-Apr-17 22:00N 59°54' E 030°13'0 0.0
2017-Apr-17 21:30N 59°54' E 030°13'0 0.0
2017-Apr-17 21:00N 59°54' E 030°13'0 0.0
2017-Apr-17 20:30N 59°54' E 030°13'0 0.0
2017-Apr-17 20:00N 59°54' E 030°13'0 0.0
2017-Apr-17 19:30N 59°54' E 030°13'0 0.0
2017-Apr-17 19:00N 59°54' E 030°13'0 0.0
2017-Apr-17 18:30N 59°54' E 030°13'0 0.0
2017-Apr-17 18:00N 59°54' E 030°13'0 0.0
2017-Apr-17 17:30N 59°54' E 030°13'0 0.0
2017-Apr-17 17:00N 59°54' E 030°13'0 0.0
2017-Apr-17 16:30N 59°54' E 030°13'0 0.0
2017-Apr-17 16:00N 59°54' E 030°13'0 0.7
2017-Apr-17 15:30N 59°55' E 030°13'1 1.3
2017-Apr-17 15:00N 59°54' E 030°13'6 5.6
2017-Apr-17 14:00N 59°55' E 030°02'4 7.9
2017-Apr-17 13:30N 59°56' E 029°55'5 9.6
2017-Apr-17 13:00N 59°58' E 029°46'610.8
2017-Apr-17 12:28N 60°01' E 029°35'4 8.8
2017-Apr-17 11:59N 60°01' E 029°27'  
Track history (hours):
 
Tides and Currents Weather Stations Pressure Air Temp Water Temp Dewpoint Dewpoint Depression Visibility Wind Speed Wind Dir Waves Ship Positions

Albemarle Island

Last reported at 2017-Apr-26 12:36 UTC. Time now 2017-Apr-26 13:55 UTC.
Position N 51°27' E 003°44'.

Type: Cargo ship. MMSI: 308511000.

Date/timePositionNaut miles runAvg speedWind from/ knotsBaromVisibWave heightAir tempDewpointWater temp
2017-Apr-26 12:36N 51°27' E 003°44'0 0.0
2017-Apr-26 12:30N 51°27' E 003°44'0 0.0
2017-Apr-26 11:12N 51°27' E 003°44'0 0.0
2017-Apr-26 11:00N 51°27' E 003°44'0 0.0
2017-Apr-26 10:18N 51°27' E 003°44'0 0.0
2017-Apr-26 10:00N 51°27' E 003°44'0 0.0
2017-Apr-26 09:30N 51°27' E 003°44'0 0.0
2017-Apr-26 04:55N 51°27' E 003°44'2 3.3
2017-Apr-26 04:21N 51°27' E 003°41'2 5.4
2017-Apr-26 03:58N 51°26' E 003°38'511.4
2017-Apr-26 03:30N 51°29' E 003°30'713.8
2017-Apr-26 03:00N 51°34' E 003°24'714.2
2017-Apr-26 02:30N 51°40' E 003°18'612.0
2017-Apr-26 01:58N 51°45' E 003°11'5 9.6
2017-Apr-26 01:27N 51°46' E 003°03'44816.7
2017-Apr-24 22:32N 57°49' E 010°41'116.1
2017-Apr-24 22:28N 57°49' E 010°43'715.9
2017-Apr-24 22:00N 57°45' E 010°55'917.6
2017-Apr-24 21:30N 57°39' E 011°07'918.0
2017-Apr-24 21:00N 57°33' E 011°19'918.1
2017-Apr-24 20:30N 57°25' E 011°29'918.4
2017-Apr-24 20:00N 57°17' E 011°34'1318.1
2017-Apr-24 19:18N 57°05' E 011°42'518.1
2017-Apr-24 19:00N 56°60' E 011°46'9715.8
2017-Apr-24 12:49N 55°26' E 010°58'616.1
2017-Apr-24 12:28N 55°21' E 011°02'816.7
2017-Apr-24 12:00N 55°13' E 011°06'816.9
2017-Apr-24 11:30N 55°05' E 011°03'816.3
2017-Apr-24 11:00N 54°57' E 010°58'816.9
2017-Apr-24 10:30N 54°50' E 010°52'816.4
2017-Apr-24 10:00N 54°42' E 010°55'918.0
2017-Apr-24 09:30N 54°37' E 011°08'918.1
2017-Apr-24 09:00N 54°33' E 011°22'918.1
2017-Apr-24 08:30N 54°29' E 011°36'917.1
2017-Apr-24 07:59N 54°27' E 011°51'817.4
2017-Apr-24 07:30N 54°26' E 012°05'816.9
2017-Apr-24 07:00N 54°33' E 012°13'6217.3
2017-Apr-24 03:26N 55°01' E 013°49'818.0
2017-Apr-24 03:00N 55°04' E 014°02'917.6
2017-Apr-24 02:30N 55°11' E 014°11'918.1
2017-Apr-24 02:00N 55°17' E 014°22'917.9
2017-Apr-24 01:30N 55°24' E 014°32'917.7
2017-Apr-24 01:00N 55°29' E 014°45'917.9
2017-Apr-24 00:30N 55°33' E 014°59'918.0
2017-Apr-24 00:00N 55°37' E 015°13'1017.9
2017-Apr-23 23:28N 55°42' E 015°29'33418.8
2017-Apr-23 05:39N 59°36' E 022°55'320.4
2017-Apr-23 05:30N 59°36' E 023°01'1020.1
2017-Apr-23 05:00N 59°38' E 023°20'1019.6
2017-Apr-23 04:30N 59°40' E 023°39'1019.5
2017-Apr-23 04:00N 59°43' E 023°58'6619.6
2017-Apr-23 00:37N 59°58' E 026°07'619.5
2017-Apr-23 00:18N 59°59' E 026°19'619.6
2017-Apr-23 00:00N 60°01' E 026°30'1019.2
2017-Apr-22 23:29N 60°00' E 026°50'919.0
2017-Apr-22 23:00N 60°01' E 027°08'1019.6
2017-Apr-22 22:30N 60°06' E 027°25'1019.6
2017-Apr-22 22:00N 60°11' E 027°42'918.4
2017-Apr-22 21:30N 60°10' E 028°00'919.0
2017-Apr-22 21:00N 60°07' E 028°18'918.0
2017-Apr-22 20:30N 60°03' E 028°34'918.3
2017-Apr-22 20:00N 60°03' E 028°53'1018.3
2017-Apr-22 19:29N 60°02' E 029°12'1214.0
2017-Apr-22 18:38N 60°01' E 029°35'513.0
2017-Apr-22 18:15N 59°59' E 029°45'311.1
2017-Apr-22 18:00N 59°57' E 029°49'611.2
2017-Apr-22 17:30N 59°55' E 029°60'510.6
2017-Apr-22 17:01N 59°53' E 030°09'3 5.4
2017-Apr-22 16:30N 59°55' E 030°14'1 1.0
2017-Apr-22 16:00N 59°54' E 030°13'0 0.0
2017-Apr-22 15:30N 59°54' E 030°13'0 0.0
2017-Apr-22 15:00N 59°54' E 030°13'0 0.0
2017-Apr-22 14:30N 59°54' E 030°13'0 0.0
2017-Apr-22 13:30N 59°54' E 030°13'0 0.0
2017-Apr-22 13:00N 59°54' E 030°13'0 0.0
2017-Apr-22 12:30N 59°54' E 030°13'0 0.0
2017-Apr-22 12:00N 59°54' E 030°13'0 0.0
2017-Apr-22 11:30N 59°54' E 030°13'0 0.0
2017-Apr-22 11:00N 59°54' E 030°13'0 0.0
2017-Apr-22 10:30N 59°54' E 030°13'0 0.0
2017-Apr-22 10:00N 59°54' E 030°13'0 0.0
2017-Apr-22 09:30N 59°54' E 030°13'0 0.0
2017-Apr-22 09:00N 59°54' E 030°13'0 0.0
2017-Apr-22 08:30N 59°54' E 030°13'0 0.0
2017-Apr-22 08:00N 59°54' E 030°13'0 0.0
2017-Apr-22 07:30N 59°54' E 030°13'0 0.0
2017-Apr-22 07:00N 59°54' E 030°13'0 0.0
2017-Apr-22 06:30N 59°54' E 030°13'0 0.0
2017-Apr-22 06:00N 59°54' E 030°13'0 0.0
2017-Apr-22 05:30N 59°54' E 030°13'0 0.0
2017-Apr-22 05:00N 59°54' E 030°13'0 0.0
2017-Apr-22 04:30N 59°54' E 030°13'0 0.0
2017-Apr-22 04:00N 59°54' E 030°13'0 0.0
2017-Apr-22 03:30N 59°54' E 030°13'0 0.0
2017-Apr-22 03:00N 59°54' E 030°13'0 0.0
2017-Apr-22 02:30N 59°54' E 030°13'0 0.0
2017-Apr-22 02:00N 59°54' E 030°13'0 0.0
2017-Apr-22 01:30N 59°54' E 030°13'0 0.0
2017-Apr-22 01:00N 59°54' E 030°13'0 0.0
2017-Apr-22 00:30N 59°54' E 030°13'0 0.0
2017-Apr-22 00:00N 59°54' E 030°13'0 0.0
2017-Apr-21 23:30N 59°54' E 030°13'0 0.0
2017-Apr-21 23:00N 59°54' E 030°13'0 0.0
2017-Apr-21 22:30N 59°54' E 030°13'0 0.0
2017-Apr-21 22:00N 59°54' E 030°13'0 0.0
2017-Apr-21 21:30N 59°54' E 030°13'0 0.0
2017-Apr-21 21:00N 59°54' E 030°13'0 0.0
2017-Apr-21 20:30N 59°54' E 030°13'0 0.0
2017-Apr-21 20:00N 59°54' E 030°13'0 0.0
2017-Apr-21 19:29N 59°54' E 030°13'0 0.0
2017-Apr-21 18:59N 59°54' E 030°13'0 0.0
2017-Apr-21 18:29N 59°54' E 030°13'0 0.0
2017-Apr-21 17:59N 59°54' E 030°13'0 0.0
2017-Apr-21 17:29N 59°54' E 030°13'0 0.0
2017-Apr-21 16:59N 59°54' E 030°13'0 0.0
2017-Apr-21 16:29N 59°54' E 030°13'0 0.0
2017-Apr-21 15:59N 59°54' E 030°13'0 0.0
2017-Apr-21 15:29N 59°54' E 030°13'0 0.0
2017-Apr-21 14:59N 59°54' E 030°13'0 0.0
2017-Apr-21 14:29N 59°54' E 030°13'0 0.0
2017-Apr-21 13:29N 59°54' E 030°13'0 0.0
2017-Apr-21 12:59N 59°54' E 030°13'0 0.0
2017-Apr-21 12:29N 59°54' E 030°13'0 0.0
2017-Apr-21 11:59N 59°54' E 030°13'0 0.0
2017-Apr-21 11:29N 59°54' E 030°13'0 0.0
2017-Apr-21 10:59N 59°54' E 030°13'0 0.0
2017-Apr-21 10:29N 59°54' E 030°13'0 0.0
2017-Apr-21 09:59N 59°54' E 030°13'0 0.0
2017-Apr-21 09:29N 59°54' E 030°13'0 0.0
2017-Apr-21 08:59N 59°54' E 030°13'0 0.0
2017-Apr-21 08:29N 59°54' E 030°13'0 0.0
2017-Apr-21 07:56N 59°54' E 030°13'0 0.0
2017-Apr-21 07:29N 59°54' E 030°13'0 0.0
2017-Apr-21 06:59N 59°54' E 030°13'0 0.0
2017-Apr-21 06:29N 59°54' E 030°13'0 0.0
2017-Apr-21 05:59N 59°54' E 030°13'0 0.0
2017-Apr-21 05:29N 59°54' E 030°13'0 0.0
2017-Apr-21 04:59N 59°54' E 030°13'0 0.0
2017-Apr-21 04:29N 59°54' E 030°13'0 0.0
2017-Apr-21 03:59N 59°54' E 030°13'0 0.0
2017-Apr-21 03:29N 59°54' E 030°13'0 0.0
2017-Apr-21 02:59N 59°54' E 030°13'0 0.0
2017-Apr-21 02:29N 59°54' E 030°13'0 0.0
2017-Apr-21 01:59N 59°54' E 030°13'0 0.0
2017-Apr-21 01:29N 59°54' E 030°13'0 0.0
2017-Apr-21 00:59N 59°54' E 030°13'0 0.0
2017-Apr-21 00:29N 59°54' E 030°13'0 0.0
2017-Apr-20 23:53N 59°54' E 030°13'0 0.0
2017-Apr-20 23:29N 59°54' E 030°13'0 0.0
2017-Apr-20 22:59N 59°54' E 030°13'0 0.0
2017-Apr-20 22:29N 59°54' E 030°13'0 0.0
2017-Apr-20 21:59N 59°54' E 030°13'0 0.0
2017-Apr-20 21:29N 59°54' E 030°13'0 0.0
2017-Apr-20 20:59N 59°54' E 030°13'0 0.0
2017-Apr-20 20:29N 59°54' E 030°13'0 0.0
2017-Apr-20 19:59N 59°54' E 030°13'0 0.0
2017-Apr-20 19:29N 59°54' E 030°13'0 0.0
2017-Apr-20 18:59N 59°54' E 030°13'0 0.0
2017-Apr-20 18:29N 59°54' E 030°13'0 0.0
2017-Apr-20 17:59N 59°54' E 030°13'0 0.0
2017-Apr-20 17:29N 59°54' E 030°13'0 0.0
2017-Apr-20 16:56N 59°54' E 030°13'0 0.0
2017-Apr-20 16:29N 59°54' E 030°13'0 0.0
2017-Apr-20 15:59N 59°54' E 030°13'0 0.0
2017-Apr-20 15:29N 59°54' E 030°13'0 0.0
2017-Apr-20 14:59N 59°54' E 030°13'0 0.0
2017-Apr-20 13:59N 59°54' E 030°13'0 0.0
2017-Apr-20 13:29N 59°54' E 030°13'0 0.0
2017-Apr-20 12:59N 59°54' E 030°13'0 0.0
2017-Apr-20 12:29N 59°54' E 030°13'0 0.0
2017-Apr-20 11:59N 59°54' E 030°13'0 0.0
2017-Apr-20 11:29N 59°54' E 030°13'0 0.0
2017-Apr-20 10:59N 59°54' E 030°13'0 0.0
2017-Apr-20 10:29N 59°54' E 030°13'0 0.0
2017-Apr-20 09:56N 59°54' E 030°13'0 0.0
2017-Apr-20 09:29N 59°54' E 030°13'0 0.0
2017-Apr-20 08:59N 59°54' E 030°13'0 0.0
2017-Apr-20 08:29N 59°54' E 030°13'0 0.0
2017-Apr-20 07:59N 59°54' E 030°13'0 0.0
2017-Apr-20 07:29N 59°54' E 030°13'0 0.0
2017-Apr-20 06:58N 59°54' E 030°13'0 0.0
2017-Apr-20 06:28N 59°54' E 030°13'0 0.0
2017-Apr-20 05:55N 59°54' E 030°13'0 0.0
2017-Apr-20 05:28N 59°54' E 030°13'0 0.0
2017-Apr-20 04:58N 59°54' E 030°13'0 0.0
2017-Apr-20 04:28N 59°54' E 030°13'0 0.0
2017-Apr-20 03:58N 59°54' E 030°13'0 0.0
2017-Apr-20 03:28N 59°54' E 030°13'0 0.0
2017-Apr-20 02:58N 59°54' E 030°13'0 0.0
2017-Apr-20 02:28N 59°54' E 030°13'0 0.0
2017-Apr-20 01:58N 59°54' E 030°13'0 0.0
2017-Apr-20 01:28N 59°54' E 030°13'0 0.0
2017-Apr-20 00:55N 59°54' E 030°13'0 0.0
2017-Apr-20 00:28N 59°54' E 030°13'0 0.0
2017-Apr-19 23:58N 59°54' E 030°13'0 0.0
2017-Apr-19 23:28N 59°54' E 030°13'0 0.0
2017-Apr-19 22:58N 59°54' E 030°13'0 0.0
2017-Apr-19 22:28N 59°54' E 030°13'0 0.0
2017-Apr-19 21:58N 59°54' E 030°13'0 0.0
2017-Apr-19 21:28N 59°54' E 030°13'0 0.0
2017-Apr-19 20:58N 59°54' E 030°13'0 0.0
2017-Apr-19 20:28N 59°54' E 030°13'0 0.0
2017-Apr-19 19:58N 59°54' E 030°13'0 0.0
2017-Apr-19 19:28N 59°54' E 030°13'0 0.0
2017-Apr-19 18:55N 59°54' E 030°13'0 0.0
2017-Apr-19 18:28N 59°54' E 030°13'0 0.0
2017-Apr-19 17:58N 59°54' E 030°13'0 0.0
2017-Apr-19 17:28N 59°54' E 030°13'0 0.0
2017-Apr-19 16:58N 59°54' E 030°13'0 0.0
2017-Apr-19 16:28N 59°54' E 030°13'0 0.0
2017-Apr-19 15:58N 59°54' E 030°13'0 0.0
2017-Apr-19 15:28N 59°54' E 030°13'0 0.0
2017-Apr-19 14:58N 59°54' E 030°13'0 0.0
2017-Apr-19 14:28N 59°54' E 030°13'0 0.0
2017-Apr-19 13:25N 59°54' E 030°13'0 0.0
2017-Apr-19 12:55N 59°54' E 030°13'0 0.0
2017-Apr-19 12:28N 59°54' E 030°13'0 0.0
2017-Apr-19 11:58N 59°54' E 030°13'0 0.0
2017-Apr-19 11:28N 59°54' E 030°13'0 0.0
2017-Apr-19 10:58N 59°54' E 030°13'0 0.0
2017-Apr-19 10:28N 59°54' E 030°13'0 0.0
2017-Apr-19 09:58N 59°54' E 030°13'0 0.0
2017-Apr-19 09:28N 59°54' E 030°13'0 0.0
2017-Apr-19 08:58N 59°54' E 030°13'0 0.0
2017-Apr-19 08:28N 59°54' E 030°13'0 0.0
2017-Apr-19 07:58N 59°54' E 030°13'0 0.0
2017-Apr-19 07:28N 59°54' E 030°13'0 0.0
2017-Apr-19 06:58N 59°54' E 030°13'0 0.0
2017-Apr-19 06:28N 59°54' E 030°13'0 0.0
2017-Apr-19 05:58N 59°54' E 030°13'0 0.0
2017-Apr-19 05:28N 59°54' E 030°13'0 0.0
2017-Apr-19 04:58N 59°54' E 030°13'0 0.0
2017-Apr-19 04:28N 59°54' E 030°13'0 0.0
2017-Apr-19 03:58N 59°54' E 030°13'0 0.0
2017-Apr-19 03:28N 59°54' E 030°13'0 0.0
2017-Apr-19 02:58N 59°54' E 030°13'0 0.0
2017-Apr-19 02:28N 59°54' E 030°13'0 0.0
2017-Apr-19 01:58N 59°54' E 030°13'0 0.0
2017-Apr-19 01:28N 59°54' E 030°13'0 0.0
2017-Apr-19 00:58N 59°54' E 030°13'0 0.0
2017-Apr-19 00:28N 59°54' E 030°13'0 0.0
2017-Apr-18 23:58N 59°54' E 030°13'0 0.0
2017-Apr-18 23:28N 59°54' E 030°13'0 0.0
2017-Apr-18 22:58N 59°54' E 030°13'0 0.0
2017-Apr-18 22:28N 59°54' E 030°13'0 0.0
2017-Apr-18 21:58N 59°54' E 030°13'0 0.0
2017-Apr-18 21:28N 59°54' E 030°13'0 0.0
2017-Apr-18 20:58N 59°54' E 030°13'0 0.0
2017-Apr-18 20:28N 59°54' E 030°13'0 0.0
2017-Apr-18 19:58N 59°54' E 030°13'0 0.0
2017-Apr-18 19:31N 59°54' E 030°13'0 0.0
2017-Apr-18 19:01N 59°54' E 030°13'0 0.0
2017-Apr-18 18:30N 59°54' E 030°13'0 0.0
2017-Apr-18 18:00N 59°54' E 030°13'0 0.0
2017-Apr-18 17:30N 59°54' E 030°13'0 0.0
2017-Apr-18 17:00N 59°54' E 030°13'0 0.0
2017-Apr-18 16:30N 59°54' E 030°13'0 0.0
2017-Apr-18 16:00N 59°54' E 030°13'0 0.0
2017-Apr-18 15:27N 59°54' E 030°13'0 0.0
2017-Apr-18 15:00N 59°54' E 030°13'0 0.0
2017-Apr-18 14:30N 59°54' E 030°13'0 0.0
2017-Apr-18 13:30N 59°54' E 030°13'0 0.0
2017-Apr-18 11:48N 59°54' E 030°13'0 0.0
2017-Apr-18 11:30N 59°54' E 030°13'0 0.0
2017-Apr-18 11:00N 59°54' E 030°13'0 0.0
2017-Apr-18 10:30N 59°54' E 030°13'0 0.0
2017-Apr-18 10:00N 59°54' E 030°13'0 0.0
2017-Apr-18 09:30N 59°54' E 030°13'0 0.0
2017-Apr-18 09:00N 59°54' E 030°13'0 0.0
2017-Apr-18 08:30N 59°54' E 030°13'0 0.0
2017-Apr-18 08:00N 59°54' E 030°13'0 0.0
2017-Apr-18 07:30N 59°54' E 030°13'0 0.0
2017-Apr-18 07:00N 59°54' E 030°13'0 0.0
2017-Apr-18 06:30N 59°54' E 030°13'0 0.0
2017-Apr-18 06:00N 59°54' E 030°13'0 0.0
2017-Apr-18 05:24N 59°54' E 030°13'0 0.0
2017-Apr-18 05:00N 59°54' E 030°13'0 0.0
2017-Apr-18 04:30N 59°54' E 030°13'0 0.0
2017-Apr-18 04:00N 59°54' E 030°13'0 0.0
2017-Apr-18 03:30N 59°54' E 030°13'0 0.0
2017-Apr-18 03:00N 59°54' E 030°13'0 0.0
2017-Apr-18 02:30N 59°54' E 030°13'0 0.0
2017-Apr-18 01:57N 59°54' E 030°13'0 0.0
2017-Apr-18 01:30N 59°54' E 030°13'0 0.0
2017-Apr-18 01:00N 59°54' E 030°13'0 0.0
2017-Apr-18 00:30N 59°54' E 030°13'0 0.0
2017-Apr-18 00:00N 59°54' E 030°13'0 0.0
2017-Apr-17 23:30N 59°54' E 030°13'0 0.0
2017-Apr-17 23:00N 59°54' E 030°13'0 0.0
2017-Apr-17 22:30N 59°54' E 030°13'0 0.0
2017-Apr-17 22:00N 59°54' E 030°13'0 0.0
2017-Apr-17 21:30N 59°54' E 030°13'0 0.0
2017-Apr-17 21:00N 59°54' E 030°13'0 0.0
2017-Apr-17 20:30N 59°54' E 030°13'0 0.0
2017-Apr-17 20:00N 59°54' E 030°13'0 0.0
2017-Apr-17 19:30N 59°54' E 030°13'0 0.0
2017-Apr-17 19:00N 59°54' E 030°13'0 0.0
2017-Apr-17 18:30N 59°54' E 030°13'0 0.0
2017-Apr-17 18:00N 59°54' E 030°13'0 0.0
2017-Apr-17 17:30N 59°54' E 030°13'0 0.0
2017-Apr-17 17:00N 59°54' E 030°13'0 0.0
2017-Apr-17 16:30N 59°54' E 030°13'0 0.0
2017-Apr-17 16:00N 59°54' E 030°13'0 0.7
2017-Apr-17 15:30N 59°55' E 030°13'1 1.3
2017-Apr-17 15:00N 59°54' E 030°13'6 5.6
2017-Apr-17 14:00N 59°55' E 030°02'4 7.9
2017-Apr-17 13:30N 59°56' E 029°55'5 9.6
2017-Apr-17 13:00N 59°58' E 029°46'610.8
2017-Apr-17 12:28N 60°01' E 029°35'4 8.8
2017-Apr-17 11:59N 60°01' E 029°27'  

Dump ship's entire track history